Time;durP1;ratioP1;P1;durP2;ratioP2;P2;SDS_P1;SDS_P2;PMS_P1;PMS_P2;Temp;Humidity;BMP_temperature;BMP_pressure;BME280_temperature;BME280_humidity;BME280_pressure;Samples;Min_cycle;Max_cycle;Signal;HPM_P1;HPM_P2
2023/04/04 00:00:59;;;;;;;;;7.75;6.00;;;;;9.58;41.38;101874.09;5049072;28;45708;-61
2023/04/04 00:03:25;;;;;;;;;8.00;6.00;;;;;9.49;42.55;101886.09;5014536;28;45787;-61
2023/04/04 00:05:50;;;;;;;;;6.00;6.00;;;;;9.44;41.90;101877.56;5032934;28;45283;-61
2023/04/04 00:08:16;;;;;;;;;4.00;4.00;;;;;9.43;42.29;101884.06;5032751;28;45665;-61
2023/04/04 00:10:41;;;;;;;;;6.00;3.00;;;;;9.45;42.78;101871.06;5031371;28;45367;-61
2023/04/04 00:13:08;;;;;;;;;4.00;4.00;;;;;9.39;42.09;101869.03;5012331;28;45747;-60
2023/04/04 00:15:35;;;;;;;;;4.40;3.40;;;;;9.39;42.12;101864.38;5013687;28;45577;-60
2023/04/04 00:18:02;;;;;;;;;4.00;4.00;;;;;9.49;42.00;101878.75;5032119;28;45516;-58
2023/04/04 00:20:29;;;;;;;;;3.60;3.00;;;;;9.56;41.97;101884.34;5036542;28;45389;-59
2023/04/04 00:22:54;;;;;;;;;3.80;3.20;;;;;9.40;41.63;101859.75;5033826;28;45437;-59
2023/04/04 00:25:20;;;;;;;;;6.00;6.00;;;;;9.48;41.38;101889.88;5035201;28;45442;-58
2023/04/04 00:27:46;;;;;;;;;3.50;3.50;;;;;9.47;41.51;101879.94;5035615;28;45639;-58
2023/04/04 00:30:12;;;;;;;;;6.00;3.80;;;;;9.14;42.20;101842.56;5024998;28;45441;-57
2023/04/04 00:32:38;;;;;;;;;3.50;3.25;;;;;9.40;42.04;101874.31;5022530;28;45382;-58
2023/04/04 00:35:03;;;;;;;;;8.00;6.25;;;;;9.42;41.85;101877.75;5036466;28;45346;-58
2023/04/04 00:37:29;;;;;;;;;7.50;6.00;;;;;9.48;41.43;101879.78;5036407;28;46454;-61
2023/04/04 00:39:55;;;;;;;;;6.00;3.50;;;;;9.49;41.13;101869.66;5035931;28;45956;-58
2023/04/04 00:42:21;;;;;;;;;4.50;3.00;;;;;9.49;40.80;101873.25;5018209;28;45863;-58
2023/04/04 00:44:49;;;;;;;;;7.00;6.00;;;;;9.47;41.65;101882.69;5035117;28;45364;-59
2023/04/04 00:47:15;;;;;;;;;8.20;6.60;;;;;9.44;40.90;101894.00;5035743;28;47640;-57
2023/04/04 00:49:41;;;;;;;;;5.60;5.60;;;;;9.38;41.12;101878.28;5036041;28;45309;-58
2023/04/04 00:52:06;;;;;;;;;6.00;6.00;;;;;9.37;41.08;101885.63;5036149;28;45533;-58
2023/04/04 00:54:32;;;;;;;;;6.75;3.75;;;;;9.33;41.77;101881.53;5036329;28;45296;-58
2023/04/04 00:56:58;;;;;;;;;9.00;6.00;;;;;9.42;41.36;101885.97;5051109;28;46456;-58
2023/04/04 00:59:25;;;;;;;;;7.00;6.00;;;;;9.36;42.00;101883.94;5036157;28;45382;-59
2023/04/04 01:01:50;;;;;;;;;7.20;3.80;;;;;9.17;42.04;101868.72;5052126;28;45346;-59
2023/04/04 01:04:16;;;;;;;;;4.00;4.00;;;;;9.11;41.29;101853.00;5017916;28;45485;-60
2023/04/04 01:06:41;;;;;;;;;6.50;6.00;;;;;8.95;41.37;101827.34;5036425;28;46139;-60
2023/04/04 01:09:07;;;;;;;;;9.25;7.00;;;;;9.26;42.15;101875.91;5017879;28;45339;-59
2023/04/04 01:11:32;;;;;;;;;3.25;3.25;;;;;9.25;41.58;101849.53;5001434;28;45303;-59
2023/04/04 01:13:58;;;;;;;;;5.00;3.00;;;;;9.31;41.73;101868.03;5018440;28;45526;-59
2023/04/04 01:16:23;;;;;;;;;4.75;4.75;;;;;8.74;41.48;101763.06;5035608;28;45544;-59
2023/04/04 01:18:49;;;;;;;;;7.00;6.00;;;;;9.24;41.92;101863.41;5018088;28;45446;-59
2023/04/04 01:21:16;;;;;;;;;4.00;4.00;;;;;9.29;41.61;101866.47;5017810;28;45404;-59
2023/04/04 01:24:02;;;;;;;;;4.00;4.00;;;;;9.24;41.94;101861.53;5018336;28;45383;-60
2023/04/04 01:26:27;;;;;;;;;9.20;6.40;;;;;8.70;40.85;101767.16;5035320;28;45769;-60
2023/04/04 01:28:54;;;;;;;;;6.00;3.75;;;;;9.25;41.96;101860.50;5035153;28;45440;-60
2023/04/04 01:31:42;;;;;;;;;6.20;4.40;;;;;9.21;42.44;101867.34;5035612;28;45314;-59
2023/04/04 01:34:27;;;;;;;;;6.60;6.00;;;;;9.10;41.78;101843.94;5018050;28;45513;-60
2023/04/04 01:37:01;;;;;;;;;6.40;4.60;;;;;9.21;41.28;101864.59;5018561;28;46258;-60
2023/04/04 01:39:43;;;;;;;;;5.60;5.60;;;;;9.11;41.75;101855.75;5033712;28;45450;-60
2023/04/04 01:42:09;;;;;;;;;6.80;5.80;;;;;9.05;42.17;101868.25;5003199;28;45829;-59
2023/04/04 01:44:34;;;;;;;;;7.00;6.00;;;;;9.02;42.27;101869.44;5017843;28;45441;-60
2023/04/04 01:47:02;;;;;;;;;6.25;4.00;;;;;9.00;42.04;101876.97;5017638;28;46311;-59
2023/04/04 01:49:27;;;;;;;;;3.80;3.20;;;;;8.85;42.31;101857.66;5035217;28;45387;-60
2023/04/04 01:51:53;;;;;;;;;6.00;4.00;;;;;9.04;42.48;101877.50;5017658;28;45708;-60
2023/04/04 01:54:19;;;;;;;;;6.20;5.20;;;;;9.00;42.18;101874.25;5017643;28;45414;-60
2023/04/04 01:56:47;;;;;;;;;4.50;4.50;;;;;8.61;41.76;101806.53;5050403;28;46041;-60
2023/04/04 01:59:13;;;;;;;;;5.60;3.40;;;;;8.79;42.47;101856.47;5034868;28;45563;-58
2023/04/04 02:01:38;;;;;;;;;5.00;5.00;;;;;8.76;42.19;101848.59;5034684;28;45438;-59
2023/04/04 02:04:04;;;;;;;;;7.00;7.00;;;;;8.87;41.98;101871.19;5005328;27;45632;-60
2023/04/04 02:06:29;;;;;;;;;5.00;5.00;;;;;8.82;42.00;101880.75;5016829;28;45477;-60
2023/04/04 02:08:55;;;;;;;;;7.00;7.00;;;;;8.52;42.72;101824.84;5034822;28;45454;-59
2023/04/04 02:11:24;;;;;;;;;7.75;6.00;;;;;8.60;42.65;101827.56;5035098;28;45777;-60
2023/04/04 02:13:50;;;;;;;;;6.80;6.00;;;;;8.90;41.48;101866.22;5017544;28;45423;-60
2023/04/04 02:16:15;;;;;;;;;10.00;8.25;;;;;8.78;41.90;101843.81;5034792;28;46005;-60
2023/04/04 02:18:41;;;;;;;;;5.25;3.25;;;;;8.92;41.78;101869.63;5034831;28;45303;-59
2023/04/04 02:21:07;;;;;;;;;4.50;4.50;;;;;8.80;40.74;101865.53;5035093;28;45478;-60
2023/04/04 02:23:32;;;;;;;;;6.50;6.50;;;;;8.70;42.24;101862.13;5017248;28;45404;-59
2023/04/04 02:25:58;;;;;;;;;5.25;3.50;;;;;8.78;41.24;101864.84;5034783;28;45945;-60
2023/04/04 02:28:23;;;;;;;;;7.50;6.75;;;;;8.71;41.07;101856.50;5016906;28;46037;-59
2023/04/04 02:30:49;;;;;;;;;5.25;5.00;;;;;8.30;41.72;101813.53;5016838;28;45503;-60
2023/04/04 02:33:14;;;;;;;;;9.50;7.25;;;;;8.31;40.89;101817.97;5017076;28;45378;-57
2023/04/04 02:35:40;;;;;;;;;4.00;4.00;;;;;8.14;41.63;101800.72;5034682;28;46403;-58
2023/04/04 02:38:05;;;;;;;;;4.00;4.00;;;;;8.43;41.45;101861.41;5034818;28;45462;-60
2023/04/04 02:40:31;;;;;;;;;6.00;3.75;;;;;8.27;41.70;101827.53;5032604;28;45540;-59
2023/04/04 02:42:56;;;;;;;;;7.25;4.50;;;;;8.45;41.78;101859.34;5033962;28;45549;-58
2023/04/04 02:45:21;;;;;;;;;9.00;6.00;;;;;8.48;41.24;101857.13;5034605;28;45465;-58
2023/04/04 02:47:50;;;;;;;;;7.50;6.00;;;;;8.49;41.59;101861.56;5033885;28;45333;-58
2023/04/04 02:50:16;;;;;;;;;3.00;3.00;;;;;8.45;40.95;101853.88;5034767;28;45324;-58
2023/04/04 02:52:41;;;;;;;;;7.00;4.50;;;;;8.00;41.37;101792.16;5016415;28;45780;-58
2023/04/04 02:55:07;;;;;;;;;3.50;2.75;;;;;8.36;41.97;101848.41;5033790;28;46688;-58
2023/04/04 02:57:33;;;;;;;;;5.50;5.50;;;;;8.26;41.71;101847.72;5033972;28;45843;-58
2023/04/04 02:59:58;;;;;;;;;6.25;6.00;;;;;8.31;41.07;101844.50;5034037;28;45426;-58
2023/04/04 03:02:24;;;;;;;;;7.75;3.75;;;;;8.04;41.07;101816.41;5016253;28;45373;-58
2023/04/04 03:04:50;;;;;;;;;6.00;6.00;;;;;8.26;41.69;101854.06;5033846;28;46615;-58
2023/04/04 03:07:16;;;;;;;;;9.50;6.25;;;;;8.20;41.69;101845.66;5033889;28;45383;-59
2023/04/04 03:09:44;;;;;;;;;5.75;5.00;;;;;7.93;41.90;101814.84;5034142;28;45382;-60
2023/04/04 03:12:10;;;;;;;;;7.00;6.00;;;;;8.14;41.94;101834.38;5032510;28;45949;-59
2023/04/04 03:14:35;;;;;;;;;8.40;5.00;;;;;7.97;41.77;101791.63;5034030;28;45351;-60
2023/04/04 03:17:02;;;;;;;;;8.75;6.50;;;;;8.00;42.22;101805.81;5033685;28;45291;-60
2023/04/04 03:19:28;;;;;;;;;5.60;5.60;;;;;8.13;42.69;101831.81;5015943;28;45417;-60
2023/04/04 03:21:53;;;;;;;;;6.00;4.75;;;;;8.29;42.48;101836.44;4999684;28;45497;-60
2023/04/04 03:24:19;;;;;;;;;6.50;5.50;;;;;8.20;42.13;101832.84;5033777;28;46727;-59
2023/04/04 03:26:44;;;;;;;;;7.50;6.25;;;;;8.25;41.76;101846.88;5015977;28;45875;-59
2023/04/04 03:29:10;;;;;;;;;6.00;6.00;;;;;8.22;42.01;101840.91;5033493;28;45421;-59
2023/04/04 03:31:35;;;;;;;;;5.00;4.25;;;;;8.28;42.44;101841.06;5034045;28;45348;-59
2023/04/04 03:34:01;;;;;;;;;7.00;7.00;;;;;8.25;42.03;101852.34;5033688;28;45939;-61
2023/04/04 03:36:26;;;;;;;;;7.25;6.00;;;;;8.25;42.18;101841.41;5033549;28;45356;-60
2023/04/04 03:38:52;;;;;;;;;3.25;3.25;;;;;8.32;41.72;101854.41;5033834;28;45438;-59
2023/04/04 03:41:17;;;;;;;;;3.00;3.00;;;;;8.26;42.16;101840.38;5033433;28;45306;-60
2023/04/04 03:43:44;;;;;;;;;4.25;4.25;;;;;8.31;41.80;101852.69;5033462;28;45834;-60
2023/04/04 03:46:09;;;;;;;;;9.60;7.40;;;;;8.20;42.04;101865.66;5033313;28;45639;-60
2023/04/04 03:48:35;;;;;;;;;4.25;4.25;;;;;8.18;42.18;101861.38;5015768;28;45240;-59
2023/04/04 03:51:02;;;;;;;;;6.00;6.00;;;;;8.04;42.66;101851.94;5034023;28;45474;-59
2023/04/04 03:53:28;;;;;;;;;6.80;6.00;;;;;8.07;42.26;101855.19;5032342;28;47025;-58
2023/04/04 03:55:54;;;;;;;;;3.75;2.75;;;;;7.95;41.95;101865.59;5032900;28;45433;-58
2023/04/04 03:58:20;;;;;;;;;4.40;4.40;;;;;7.90;42.13;101857.03;5032961;28;45390;-59
2023/04/04 04:00:45;;;;;;;;;5.25;5.25;;;;;7.86;41.94;101844.75;5033586;28;45488;-58
2023/04/04 04:03:11;;;;;;;;;5.50;3.50;;;;;7.88;42.17;101850.91;5032844;28;45919;-59
2023/04/04 04:05:36;;;;;;;;;6.75;5.75;;;;;7.94;41.85;101849.38;5032969;28;45457;-57
2023/04/04 04:08:02;;;;;;;;;6.75;5.50;;;;;7.93;42.33;101859.47;5015208;28;45367;-59
2023/04/04 04:10:28;;;;;;;;;7.25;7.25;;;;;7.55;42.28;101821.59;5012257;28;45531;-58
2023/04/04 04:12:53;;;;;;;;;9.50;7.25;;;;;7.80;41.77;101859.09;5027010;28;45470;-60
2023/04/04 04:15:18;;;;;;;;;6.75;5.25;;;;;7.46;42.09;101825.31;5030010;28;45601;-59
2023/04/04 04:17:44;;;;;;;;;10.75;7.00;;;;;7.53;42.01;101825.53;5033055;28;45374;-60
2023/04/04 04:20:10;;;;;;;;;10.50;6.75;;;;;7.70;41.56;101871.00;5033732;28;45267;-60
2023/04/04 04:22:36;;;;;;;;;9.20;6.80;;;;;7.63;42.19;101886.34;5014470;28;46976;-58
2023/04/04 04:25:02;;;;;;;;;4.40;3.00;;;;;7.46;42.45;101869.88;5033150;28;45536;-59
2023/04/04 04:27:29;;;;;;;;;5.50;5.50;;;;;7.61;42.57;101891.13;5032426;28;45472;-60
2023/04/04 04:29:54;;;;;;;;;6.00;6.00;;;;;7.55;42.63;101899.97;5033011;28;45635;-59
2023/04/04 04:32:20;;;;;;;;;5.00;5.00;;;;;7.63;43.24;101902.72;5032700;28;45612;-59
2023/04/04 04:34:45;;;;;;;;;6.75;6.75;;;;;7.60;43.99;101906.66;5032484;28;45457;-58
2023/04/04 04:37:11;;;;;;;;;5.00;5.00;;;;;7.53;43.77;101899.28;5033193;28;45449;-59
2023/04/04 04:39:37;;;;;;;;;7.20;5.40;;;;;7.44;43.97;101899.25;5032519;28;45343;-58
2023/04/04 04:42:02;;;;;;;;;6.50;6.50;;;;;7.42;44.19;101892.25;5031312;28;48645;-59
2023/04/04 04:44:28;;;;;;;;;7.00;7.00;;;;;7.43;44.22;101894.78;5014627;28;45309;-59
2023/04/04 04:46:53;;;;;;;;;6.25;5.25;;;;;7.28;44.75;101904.63;5032713;28;45368;-58
2023/04/04 04:49:18;;;;;;;;;6.25;6.25;;;;;7.26;45.08;101909.38;5031186;28;45462;-59
2023/04/04 04:51:44;;;;;;;;;7.00;5.00;;;;;7.28;45.25;101913.69;4997662;28;47149;-59
2023/04/04 04:54:10;;;;;;;;;6.50;6.00;;;;;7.18;45.31;101908.31;5029859;28;46206;-59
2023/04/04 04:56:36;;;;;;;;;6.00;5.50;;;;;7.03;44.52;101879.88;5014493;28;45435;-60
2023/04/04 04:59:03;;;;;;;;;3.40;3.40;;;;;7.21;45.13;101898.97;5032510;28;45484;-59
2023/04/04 05:01:28;;;;;;;;;6.75;6.75;;;;;7.26;44.74;101912.13;5032823;28;45493;-60
2023/04/04 05:03:54;;;;;;;;;6.75;5.00;;;;;7.28;44.83;101904.63;5031081;28;45790;-60
2023/04/04 05:06:19;;;;;;;;;7.25;5.00;;;;;7.27;44.87;101900.16;5034669;28;45409;-59
2023/04/04 05:08:45;;;;;;;;;4.50;4.00;;;;;7.11;44.36;101888.13;5051323;28;45544;-58
2023/04/04 05:11:10;;;;;;;;;6.25;6.25;;;;;7.18;44.56;101894.66;5008950;28;46413;-59
2023/04/04 05:13:36;;;;;;;;;5.00;3.00;;;;;6.97;44.45;101875.91;5034098;28;45350;-59
2023/04/04 05:16:02;;;;;;;;;5.25;5.25;;;;;7.08;44.28;101898.50;5035974;28;45378;-60
2023/04/04 05:18:27;;;;;;;;;6.60;5.00;;;;;6.91;44.71;101855.59;5034246;28;45376;-59
2023/04/04 05:20:53;;;;;;;;;7.00;5.25;;;;;7.11;44.43;101893.59;5035401;28;46284;-59
2023/04/04 05:23:19;;;;;;;;;6.75;3.00;;;;;7.00;44.10;101880.22;5017477;28;45377;-59
2023/04/04 05:25:44;;;;;;;;;5.75;5.75;;;;;6.86;44.54;101873.44;5000108;28;45481;-59
2023/04/04 05:28:09;;;;;;;;;5.00;5.00;;;;;6.77;44.56;101846.09;5017667;28;45352;-58
2023/04/04 05:30:35;;;;;;;;;6.25;5.75;;;;;7.18;43.86;101889.22;5034457;28;45926;-61
2023/04/04 05:33:00;;;;;;;;;5.75;3.50;;;;;7.12;44.14;101876.19;5034019;28;45367;-62
2023/04/04 05:35:26;;;;;;;;;9.50;6.00;;;;;7.03;43.96;101871.69;5034693;28;45407;-60
2023/04/04 05:37:51;;;;;;;;;9.75;8.00;;;;;6.95;44.47;101883.44;5035122;28;45450;-60
2023/04/04 05:40:17;;;;;;;;;7.50;6.00;;;;;6.95;44.36;101875.25;5034829;28;45529;-60
2023/04/04 05:42:43;;;;;;;;;5.50;5.00;;;;;7.07;44.15;101875.81;5016819;28;45481;-60
2023/04/04 05:45:09;;;;;;;;;6.40;6.40;;;;;7.14;43.56;101882.34;5035377;28;45438;-60
2023/04/04 05:47:35;;;;;;;;;6.00;6.00;;;;;6.87;43.82;101836.94;5035168;28;45401;-58
2023/04/04 05:50:00;;;;;;;;;6.00;6.00;;;;;6.99;43.94;101860.22;5035016;28;46042;-58
2023/04/04 05:52:26;;;;;;;;;4.00;4.00;;;;;7.07;44.19;101905.84;5035051;28;45511;-59
2023/04/04 05:54:52;;;;;;;;;7.50;6.00;;;;;7.04;43.99;101895.22;5035043;28;45528;-59
2023/04/04 05:57:17;;;;;;;;;4.00;4.00;;;;;7.13;43.92;101905.22;5035423;28;45331;-60
2023/04/04 05:59:43;;;;;;;;;7.00;6.00;;;;;7.03;44.24;101872.56;5035114;28;46258;-58
2023/04/04 06:02:08;;;;;;;;;6.00;5.00;;;;;7.29;43.83;101911.78;5035010;28;45406;-59
2023/04/04 06:04:34;;;;;;;;;6.00;4.50;;;;;7.29;42.89;101912.66;5035100;28;45359;-59
2023/04/04 06:06:59;;;;;;;;;8.25;7.00;;;;;7.13;43.75;101890.69;5035366;28;45378;-57
2023/04/04 06:09:26;;;;;;;;;6.00;6.00;;;;;6.99;44.23;101881.22;5034548;28;46112;-60
2023/04/04 06:11:51;;;;;;;;;6.80;6.80;;;;;7.14;43.31;101920.56;5024519;28;45652;-59
2023/04/04 06:14:17;;;;;;;;;7.50;7.50;;;;;6.99;43.53;101900.34;5025939;28;45640;-59
2023/04/04 06:16:42;;;;;;;;;6.25;6.25;;;;;7.13;43.98;101924.31;5035524;28;45548;-59
2023/04/04 06:19:08;;;;;;;;;7.00;4.00;;;;;7.01;43.53;101925.59;5034461;28;45491;-59
2023/04/04 06:21:33;;;;;;;;;7.00;6.50;;;;;7.09;43.74;101930.28;5016961;28;45583;-58
2023/04/04 06:23:59;;;;;;;;;6.00;5.00;;;;;7.04;43.38;101938.91;5034815;28;45401;-59
2023/04/04 06:26:25;;;;;;;;;6.00;6.00;;;;;6.91;44.03;101945.66;5034853;28;45378;-58
2023/04/04 06:28:51;;;;;;;;;6.80;5.00;;;;;7.05;43.49;101946.94;5034384;28;46642;-63
2023/04/04 06:31:16;;;;;;;;;1.75;1.75;;;;;7.07;43.72;101938.59;5034415;28;45378;-59
2023/04/04 06:33:42;;;;;;;;;10.00;9.50;;;;;7.16;43.27;101939.53;5034864;28;45307;-59
2023/04/04 06:36:07;;;;;;;;;6.00;6.00;;;;;7.17;43.58;101947.53;5016671;28;45549;-59
2023/04/04 06:38:33;;;;;;;;;7.00;7.00;;;;;7.07;43.30;101949.53;5034188;28;46677;-60
2023/04/04 06:40:58;;;;;;;;;6.00;6.00;;;;;7.09;43.73;101961.13;5034995;28;45223;-59
2023/04/04 06:43:24;;;;;;;;;5.00;5.00;;;;;6.68;43.73;101898.91;5033820;28;45340;-58
2023/04/04 06:45:50;;;;;;;;;10.75;10.75;;;;;7.12;43.44;101958.09;5033933;28;45546;-59
2023/04/04 06:48:15;;;;;;;;;6.75;6.25;;;;;7.00;43.62;101962.09;5034090;28;46013;-58
2023/04/04 06:50:41;;;;;;;;;6.00;6.00;;;;;6.99;43.07;101955.78;5033348;28;45368;-59
2023/04/04 06:53:06;;;;;;;;;5.50;5.50;;;;;6.98;43.96;101958.69;5033318;28;45476;-58
2023/04/04 06:55:33;;;;;;;;;9.00;6.00;;;;;6.70;43.56;101921.44;5016513;28;45620;-59
2023/04/04 06:57:58;;;;;;;;;9.20;6.80;;;;;6.88;43.39;101962.34;5033171;28;47337;-59
2023/04/04 07:00:24;;;;;;;;;3.00;3.00;;;;;6.78;43.53;101937.88;5034454;28;45451;-60
2023/04/04 07:02:55;;;;;;;;;9.25;8.00;;;;;7.08;43.25;101974.94;5016338;28;45527;-58
2023/04/04 07:05:20;;;;;;;;;8.00;8.00;;;;;6.87;43.06;101930.59;5017813;28;45395;-58
2023/04/04 07:07:46;;;;;;;;;5.75;5.75;;;;;6.93;43.08;101942.75;5034100;28;46182;-58
2023/04/04 07:10:11;;;;;;;;;9.50;6.50;;;;;7.16;43.23;101977.75;5034638;28;45334;-59
2023/04/04 07:12:37;;;;;;;;;5.75;5.75;;;;;7.00;43.08;101962.94;5034192;28;45516;-59
2023/04/04 07:15:03;;;;;;;;;6.00;6.00;;;;;7.05;43.05;101981.59;5034868;28;45762;-59
2023/04/04 07:17:28;;;;;;;;;10.25;8.25;;;;;7.06;43.25;101983.31;5016336;28;47549;-60
2023/04/04 07:19:54;;;;;;;;;6.00;6.00;;;;;6.93;43.20;101955.56;5034412;28;45401;-59
2023/04/04 07:22:20;;;;;;;;;6.50;6.00;;;;;7.10;42.52;101965.56;5034584;28;45368;-59
2023/04/04 07:24:47;;;;;;;;;6.00;6.00;;;;;7.30;42.56;101987.22;5015877;28;45691;-59
2023/04/04 07:27:14;;;;;;;;;9.80;7.00;;;;;7.25;42.93;101987.72;5033087;28;46140;-59
2023/04/04 07:29:40;;;;;;;;;6.40;6.00;;;;;7.22;42.73;101978.97;5033013;28;45368;-59
2023/04/04 07:32:06;;;;;;;;;2.50;0.00;;;;;7.01;42.37;101966.53;5034182;28;45349;-60
2023/04/04 07:34:31;;;;;;;;;9.25;7.75;;;;;6.98;42.74;101955.97;5033510;28;45284;-58
2023/04/04 07:36:57;;;;;;;;;6.75;6.75;;;;;7.11;42.43;101980.09;5015798;28;46106;-61
2023/04/04 07:39:22;;;;;;;;;7.00;7.00;;;;;7.21;42.47;101969.94;4988231;28;45812;-58
2023/04/04 07:41:48;;;;;;;;;8.25;8.25;;;;;7.21;41.89;101986.34;5027151;28;45433;-58
2023/04/04 07:44:13;;;;;;;;;10.25;8.75;;;;;7.24;42.72;101986.00;5032777;28;45616;-60
2023/04/04 07:46:39;;;;;;;;;6.25;6.00;;;;;7.25;41.99;101974.06;5033703;28;45520;-59
2023/04/04 07:49:06;;;;;;;;;10.20;7.20;;;;;7.39;42.28;101982.69;5015597;28;45399;-59
2023/04/04 07:51:31;;;;;;;;;7.00;7.00;;;;;7.39;41.80;101964.44;5033639;28;45367;-56
2023/04/04 07:53:57;;;;;;;;;12.50;9.75;;;;;7.33;41.71;101973.28;5033358;28;45327;-57
2023/04/04 07:56:22;;;;;;;;;10.00;8.25;;;;;7.13;42.32;101950.75;5033345;28;46863;-57
2023/04/04 07:58:48;;;;;;;;;11.25;7.50;;;;;7.13;41.97;101929.78;5033273;28;45201;-59
2023/04/04 08:01:13;;;;;;;;;10.50;10.50;;;;;6.96;41.99;101889.72;5034068;28;45280;-56
2023/04/04 08:03:39;;;;;;;;;6.75;6.75;;;;;7.38;40.97;101976.38;5033743;28;45273;-57
2023/04/04 08:06:05;;;;;;;;;10.75;9.75;;;;;7.21;41.79;101942.66;5031798;28;45855;-57
2023/04/04 08:08:30;;;;;;;;;10.00;10.00;;;;;7.07;41.21;101924.97;5033415;28;45267;-57
2023/04/04 08:10:56;;;;;;;;;15.75;9.75;;;;;7.34;41.40;101972.25;5033818;28;45219;-58
2023/04/04 08:13:22;;;;;;;;;6.75;6.75;;;;;7.36;41.28;101974.81;5015813;28;45341;-58
2023/04/04 08:15:47;;;;;;;;;7.25;7.00;;;;;7.42;41.47;101958.63;5033511;28;45350;-57
2023/04/04 08:18:13;;;;;;;;;6.50;6.00;;;;;7.48;41.10;101959.88;5048121;28;45479;-59
2023/04/04 08:20:38;;;;;;;;;9.50;9.50;;;;;7.51;41.15;101954.09;5033862;28;45312;-58
2023/04/04 08:23:04;;;;;;;;;7.75;6.00;;;;;7.41;41.30;101948.72;5033232;28;45389;-59
2023/04/04 08:25:29;;;;;;;;;6.75;6.75;;;;;7.49;41.18;101939.75;5049017;28;45959;-59
2023/04/04 08:27:55;;;;;;;;;10.00;8.25;;;;;7.62;40.56;101955.69;5032934;28;45391;-60
2023/04/04 08:30:20;;;;;;;;;12.00;7.00;;;;;7.69;40.44;101964.94;5015287;28;45444;-59
2023/04/04 08:32:47;;;;;;;;;9.75;7.25;;;;;7.69;40.37;101970.41;5033681;28;45445;-59
2023/04/04 08:35:13;;;;;;;;;6.80;6.80;;;;;7.54;40.29;101934.66;5032628;28;46635;-60
2023/04/04 08:37:43;;;;;;;;;9.00;7.50;;;;;7.73;40.88;101974.53;5033480;28;45300;-59
2023/04/04 08:40:09;;;;;;;;;10.20;9.20;;;;;7.50;40.96;101943.31;5050433;28;45445;-57
2023/04/04 08:42:35;;;;;;;;;7.00;6.40;;;;;7.59;40.91;101918.59;5036630;28;45620;-58
2023/04/04 08:45:03;;;;;;;;;6.40;5.20;;;;;7.95;40.12;101961.28;5018495;28;45967;-58
2023/04/04 08:47:30;;;;;;;;;8.40;8.40;;;;;8.07;40.53;101969.22;5013527;28;45473;-58
2023/04/04 08:49:55;;;;;;;;;11.20;9.40;;;;;8.10;39.96;101974.34;5030434;28;45375;-58
2023/04/04 08:52:22;;;;;;;;;8.00;8.00;;;;;8.08;39.55;101968.19;5036394;28;45329;-58
2023/04/04 08:54:47;;;;;;;;;10.40;9.00;;;;;8.17;39.58;101972.66;5035786;28;45761;-58
2023/04/04 08:57:13;;;;;;;;;6.75;6.75;;;;;8.11;39.40;101978.81;5036449;28;45442;-59
2023/04/04 08:59:38;;;;;;;;;6.25;6.25;;;;;7.80;38.78;101943.81;5018375;28;45498;-57
2023/04/04 09:02:10;;;;;;;;;8.25;8.00;;;;;8.03;39.92;101984.22;5036511;28;45315;-58
2023/04/04 09:04:39;;;;;;;;;7.00;7.00;;;;;8.04;39.45;101977.72;5031627;28;46015;-58
2023/04/04 09:07:05;;;;;;;;;7.00;6.00;;;;;8.21;40.09;101989.63;5034359;28;45730;-58
2023/04/04 09:09:31;;;;;;;;;7.50;6.00;;;;;8.37;39.68;101980.56;4993854;28;45765;-58
2023/04/04 09:12:00;;;;;;;;;7.20;6.20;;;;;8.38;38.63;101969.47;5034716;28;45604;-58
2023/04/04 09:14:26;;;;;;;;;7.40;5.80;;;;;8.43;38.70;101982.63;5016418;28;45693;-58
2023/04/04 09:16:52;;;;;;;;;8.25;7.00;;;;;8.52;38.72;101978.94;5000338;28;45734;-58
2023/04/04 09:19:18;;;;;;;;;6.60;6.00;;;;;8.53;39.51;101991.59;5034376;28;45697;-58
2023/04/04 09:21:47;;;;;;;;;7.25;6.75;;;;;8.58;39.14;101979.31;5034633;28;45469;-59
2023/04/04 09:24:13;;;;;;;;;6.20;5.80;;;;;8.70;39.12;101986.16;5042478;28;45386;-59
2023/04/04 09:26:50;;;;;;;;;11.25;7.75;;;;;8.72;38.37;101975.91;5046190;28;45990;-59
2023/04/04 09:29:21;;;;;;;;;7.00;7.00;;;;;8.84;38.01;101978.28;5034655;28;45452;-58
2023/04/04 09:31:48;;;;;;;;;6.40;6.00;;;;;8.89;37.71;101979.50;5017102;28;45487;-58
2023/04/04 09:34:17;;;;;;;;;8.60;6.00;;;;;8.90;38.62;101964.78;5049561;28;46625;-58
2023/04/04 09:36:46;;;;;;;;;6.00;5.60;;;;;9.09;37.17;101968.22;5032872;28;45517;-59
2023/04/04 09:39:15;;;;;;;;;7.40;7.40;;;;;9.00;37.29;101941.84;5016473;28;45487;-59
2023/04/04 09:41:40;;;;;;;;;11.40;8.00;;;;;9.25;37.84;101971.97;5033408;28;45382;-61
2023/04/04 09:44:06;;;;;;;;;8.00;4.00;;;;;9.11;36.82;101965.31;5033873;28;45541;-59
2023/04/04 09:46:34;;;;;;;;;9.50;9.50;;;;;8.64;36.70;101877.38;5049484;28;45489;-59
2023/04/04 09:49:00;;;;;;;;;6.60;5.60;;;;;9.27;36.82;101969.88;5041416;28;46010;-59
2023/04/04 09:51:32;;;;;;;;;7.75;7.00;;;;;9.32;36.67;101971.09;5028224;28;45704;-60
2023/04/04 09:53:58;;;;;;;;;6.60;4.00;;;;;9.16;36.78;101941.84;5019393;28;45660;-58
2023/04/04 09:56:26;;;;;;;;;7.50;6.75;;;;;9.38;37.20;101977.75;5034680;28;45839;-59
2023/04/04 09:58:51;;;;;;;;;9.20;6.60;;;;;9.30;35.63;101962.22;5046794;28;45461;-60
2023/04/04 10:01:17;;;;;;;;;6.25;6.25;;;;;9.31;35.70;101955.69;5035187;28;45596;-61
2023/04/04 10:03:42;;;;;;;;;6.00;5.50;;;;;9.51;36.20;101965.41;5032443;28;45561;-59
2023/04/04 10:06:11;;;;;;;;;6.25;6.25;;;;;9.63;35.57;101967.63;5011366;28;45713;-59
2023/04/04 10:08:42;;;;;;;;;6.80;6.80;;;;;9.54;36.28;101935.75;5028090;28;45365;-60
2023/04/04 10:11:08;;;;;;;;;6.00;5.20;;;;;9.75;35.93;101948.03;5031965;28;45458;-59
2023/04/04 10:13:34;;;;;;;;;6.00;6.00;;;;;9.74;36.09;101951.81;5043828;28;45467;-59
2023/04/04 10:16:02;;;;;;;;;8.20;7.60;;;;;9.59;34.92;101935.22;5051929;28;45690;-61
2023/04/04 10:18:34;;;;;;;;;7.60;7.60;;;;;9.53;35.59;101927.72;5033415;28;45917;-60
2023/04/04 10:21:01;;;;;;;;;7.80;7.20;;;;;9.70;35.06;101950.44;5052221;28;45728;-60
2023/04/04 10:23:27;;;;;;;;;8.00;6.40;;;;;9.81;34.95;101952.81;5051012;28;46489;-60
2023/04/04 10:25:56;;;;;;;;;4.50;3.75;;;;;9.77;35.52;101926.78;5047183;28;45735;-60
2023/04/04 10:28:22;;;;;;;;;6.00;6.00;;;;;10.01;35.02;101952.38;5052890;28;45414;-60
2023/04/04 10:30:54;;;;;;;;;5.75;4.00;;;;;10.16;35.00;101955.22;5052999;28;45479;-59
2023/04/04 10:33:43;;;;;;;;;6.00;6.00;;;;;10.11;35.01;101931.09;5053100;28;46160;-59
2023/04/04 10:36:08;;;;;;;;;10.40;9.00;;;;;10.34;34.76;101946.72;5012798;28;45386;-59
2023/04/04 10:38:39;;;;;;;;;8.00;8.00;;;;;10.44;34.12;101954.75;4998857;28;45396;-62
2023/04/04 10:41:06;;;;;;;;;8.80;6.40;;;;;10.42;34.85;101935.72;5015497;28;45569;-60
2023/04/04 10:43:32;;;;;;;;;6.40;6.40;;;;;10.58;34.05;101940.25;5014982;28;46816;-60
2023/04/04 10:46:00;;;;;;;;;8.50;8.50;;;;;10.70;34.76;101953.53;5014719;28;45613;-60
2023/04/04 10:48:27;;;;;;;;;9.40;7.40;;;;;10.23;34.42;101875.78;5053903;28;45476;-63
2023/04/04 10:50:52;;;;;;;;;7.60;7.60;;;;;10.42;34.01;101908.25;5045137;28;45425;-60
2023/04/04 10:53:18;;;;;;;;;7.75;7.00;;;;;10.75;34.55;101953.00;5014845;28;46392;-60
2023/04/04 10:55:44;;;;;;;;;11.25;8.75;;;;;10.68;34.03;101941.91;5037951;28;45618;-61
2023/04/04 10:58:10;;;;;;;;;8.00;8.00;;;;;10.61;34.30;101943.69;5025353;28;45410;-61
2023/04/04 11:00:48;;;;;;;;;8.60;6.80;;;;;10.73;34.18;101939.44;5050350;28;45457;-61
2023/04/04 11:03:13;;;;;;;;;7.20;6.20;;;;;10.70;33.89;101904.13;5032420;28;45912;-59
2023/04/04 11:05:40;;;;;;;;;5.75;5.75;;;;;11.00;34.20;101937.19;5034458;28;45256;-61
2023/04/04 11:08:09;;;;;;;;;5.80;5.80;;;;;10.97;33.85;101930.16;5016454;28;45451;-61
2023/04/04 11:10:42;;;;;;;;;7.00;7.00;;;;;10.93;33.71;101894.97;5006621;28;45301;-62
2023/04/04 11:13:11;;;;;;;;;8.20;4.40;;;;;11.27;33.91;101914.75;5049323;28;46823;-59
2023/04/04 11:15:55;;;;;;;;;8.20;8.00;;;;;11.31;34.26;101916.94;5044591;28;45803;-59
2023/04/04 11:18:22;;;;;;;;;5.80;5.80;;;;;11.37;33.61;101920.84;5013971;28;46007;-61
2023/04/04 11:20:47;;;;;;;;;8.80;8.80;;;;;11.41;33.12;101910.31;5028630;28;45529;-57
2023/04/04 11:23:21;;;;;;;;;9.50;5.25;;;;;11.29;32.33;101908.03;5029656;28;45761;-59
2023/04/04 11:25:54;;;;;;;;;9.20;7.20;;;;;11.48;33.59;101923.09;5015577;28;45452;-58
2023/04/04 11:28:35;;;;;;;;;5.80;5.40;;;;;11.49;33.14;101918.47;5031773;28;45740;-59